sensor_id;sensor_type;location;lat;lon;timestamp;P1;durP1;ratioP1;P2;durP2;ratioP2
74894;SDS011;63447;49.446;8.666;2023-12-28T00:01:31;8.17;;;3.93;;
74894;SDS011;63447;49.446;8.666;2023-12-28T00:03:57;9.07;;;4.25;;
74894;SDS011;63447;49.446;8.666;2023-12-28T00:06:25;7.63;;;4.05;;
74894;SDS011;63447;49.446;8.666;2023-12-28T00:08:50;8.23;;;4.22;;
74894;SDS011;63447;49.446;8.666;2023-12-28T00:11:15;8.13;;;3.63;;
74894;SDS011;63447;49.446;8.666;2023-12-28T00:13:43;8.65;;;4.20;;
74894;SDS011;63447;49.446;8.666;2023-12-28T00:16:08;10.10;;;4.15;;
74894;SDS011;63447;49.446;8.666;2023-12-28T00:18:33;7.73;;;3.97;;
74894;SDS011;63447;49.446;8.666;2023-12-28T00:21:01;8.70;;;4.38;;
74894;SDS011;63447;49.446;8.666;2023-12-28T00:23:26;7.93;;;4.30;;
74894;SDS011;63447;49.446;8.666;2023-12-28T00:25:52;8.93;;;4.37;;
74894;SDS011;63447;49.446;8.666;2023-12-28T00:28:20;8.75;;;4.07;;
74894;SDS011;63447;49.446;8.666;2023-12-28T00:30:45;11.57;;;4.53;;
74894;SDS011;63447;49.446;8.666;2023-12-28T00:33:13;7.17;;;4.27;;
74894;SDS011;63447;49.446;8.666;2023-12-28T00:35:44;7.93;;;4.18;;
74894;SDS011;63447;49.446;8.666;2023-12-28T00:38:09;7.53;;;3.88;;
74894;SDS011;63447;49.446;8.666;2023-12-28T00:40:37;8.48;;;4.55;;
74894;SDS011;63447;49.446;8.666;2023-12-28T00:43:02;7.60;;;4.53;;
74894;SDS011;63447;49.446;8.666;2023-12-28T00:45:32;9.18;;;4.07;;
74894;SDS011;63447;49.446;8.666;2023-12-28T00:47:59;9.85;;;4.68;;
74894;SDS011;63447;49.446;8.666;2023-12-28T00:50:25;10.23;;;4.53;;
74894;SDS011;63447;49.446;8.666;2023-12-28T00:52:52;8.40;;;4.20;;
74894;SDS011;63447;49.446;8.666;2023-12-28T00:55:20;7.80;;;4.13;;
74894;SDS011;63447;49.446;8.666;2023-12-28T00:57:45;7.10;;;3.80;;
74894;SDS011;63447;49.446;8.666;2023-12-28T01:00:13;10.23;;;4.30;;
74894;SDS011;63447;49.446;8.666;2023-12-28T01:02:41;9.20;;;4.38;;
74894;SDS011;63447;49.446;8.666;2023-12-28T01:05:06;8.32;;;4.32;;
74894;SDS011;63447;49.446;8.666;2023-12-28T01:07:32;8.52;;;4.38;;
74894;SDS011;63447;49.446;8.666;2023-12-28T01:09:57;9.37;;;4.40;;
74894;SDS011;63447;49.446;8.666;2023-12-28T01:12:23;7.40;;;4.03;;
74894;SDS011;63447;49.446;8.666;2023-12-28T01:14:48;8.60;;;4.33;;
74894;SDS011;63447;49.446;8.666;2023-12-28T01:17:13;8.55;;;4.15;;
74894;SDS011;63447;49.446;8.666;2023-12-28T01:19:39;7.67;;;4.40;;
74894;SDS011;63447;49.446;8.666;2023-12-28T01:22:04;9.38;;;4.50;;
74894;SDS011;63447;49.446;8.666;2023-12-28T01:24:29;7.90;;;4.23;;
74894;SDS011;63447;49.446;8.666;2023-12-28T01:26:57;8.88;;;4.32;;
74894;SDS011;63447;49.446;8.666;2023-12-28T01:29:22;10.10;;;4.67;;
74894;SDS011;63447;49.446;8.666;2023-12-28T01:31:48;8.20;;;4.57;;
74894;SDS011;63447;49.446;8.666;2023-12-28T01:34:15;7.32;;;4.55;;
74894;SDS011;63447;49.446;8.666;2023-12-28T01:36:43;8.73;;;4.50;;
74894;SDS011;63447;49.446;8.666;2023-12-28T01:39:09;8.75;;;4.57;;
74894;SDS011;63447;49.446;8.666;2023-12-28T01:41:40;8.13;;;4.25;;
74894;SDS011;63447;49.446;8.666;2023-12-28T01:44:05;9.23;;;4.30;;
74894;SDS011;63447;49.446;8.666;2023-12-28T01:46:31;8.05;;;4.07;;
74894;SDS011;63447;49.446;8.666;2023-12-28T01:48:59;7.13;;;3.55;;
74894;SDS011;63447;49.446;8.666;2023-12-28T01:51:26;7.10;;;3.55;;
74894;SDS011;63447;49.446;8.666;2023-12-28T01:53:56;8.77;;;4.07;;
74894;SDS011;63447;49.446;8.666;2023-12-28T01:56:24;8.13;;;4.25;;
74894;SDS011;63447;49.446;8.666;2023-12-28T01:58:50;7.28;;;3.85;;
74894;SDS011;63447;49.446;8.666;2023-12-28T02:01:19;8.05;;;3.72;;
74894;SDS011;63447;49.446;8.666;2023-12-28T02:03:48;7.72;;;4.03;;
74894;SDS011;63447;49.446;8.666;2023-12-28T02:06:14;8.50;;;4.13;;
74894;SDS011;63447;49.446;8.666;2023-12-28T02:08:41;8.48;;;3.72;;
74894;SDS011;63447;49.446;8.666;2023-12-28T02:11:06;6.93;;;3.60;;
74894;SDS011;63447;49.446;8.666;2023-12-28T02:13:32;6.75;;;3.60;;
74894;SDS011;63447;49.446;8.666;2023-12-28T02:15:59;8.67;;;3.77;;
74894;SDS011;63447;49.446;8.666;2023-12-28T02:18:32;7.38;;;3.42;;
74894;SDS011;63447;49.446;8.666;2023-12-28T02:21:02;7.80;;;3.47;;
74894;SDS011;63447;49.446;8.666;2023-12-28T02:23:27;6.63;;;3.35;;
74894;SDS011;63447;49.446;8.666;2023-12-28T02:25:53;7.37;;;3.70;;
74894;SDS011;63447;49.446;8.666;2023-12-28T02:28:20;8.02;;;3.90;;
74894;SDS011;63447;49.446;8.666;2023-12-28T02:30:46;7.18;;;3.47;;
74894;SDS011;63447;49.446;8.666;2023-12-28T02:33:32;7.33;;;3.20;;
74894;SDS011;63447;49.446;8.666;2023-12-28T02:36:06;7.15;;;3.25;;
74894;SDS011;63447;49.446;8.666;2023-12-28T02:38:36;6.45;;;3.30;;
74894;SDS011;63447;49.446;8.666;2023-12-28T02:41:03;5.85;;;2.88;;
74894;SDS011;63447;49.446;8.666;2023-12-28T02:43:29;6.97;;;3.15;;
74894;SDS011;63447;49.446;8.666;2023-12-28T02:45:54;5.97;;;2.95;;
74894;SDS011;63447;49.446;8.666;2023-12-28T02:48:20;6.30;;;3.13;;
74894;SDS011;63447;49.446;8.666;2023-12-28T02:50:45;6.68;;;3.40;;
74894;SDS011;63447;49.446;8.666;2023-12-28T02:53:13;6.25;;;3.00;;
74894;SDS011;63447;49.446;8.666;2023-12-28T02:55:40;6.00;;;2.92;;
74894;SDS011;63447;49.446;8.666;2023-12-28T02:58:08;6.77;;;3.00;;
74894;SDS011;63447;49.446;8.666;2023-12-28T03:00:36;6.72;;;3.30;;
74894;SDS011;63447;49.446;8.666;2023-12-28T03:03:03;7.05;;;3.15;;
74894;SDS011;63447;49.446;8.666;2023-12-28T03:05:31;6.22;;;3.42;;
74894;SDS011;63447;49.446;8.666;2023-12-28T03:07:58;6.50;;;3.03;;
74894;SDS011;63447;49.446;8.666;2023-12-28T03:10:27;6.30;;;2.95;;
74894;SDS011;63447;49.446;8.666;2023-12-28T03:12:52;6.97;;;2.70;;
74894;SDS011;63447;49.446;8.666;2023-12-28T03:15:20;7.57;;;3.40;;
74894;SDS011;63447;49.446;8.666;2023-12-28T03:17:45;6.65;;;3.35;;
74894;SDS011;63447;49.446;8.666;2023-12-28T03:20:10;5.72;;;2.78;;
74894;SDS011;63447;49.446;8.666;2023-12-28T03:22:36;6.93;;;3.40;;
74894;SDS011;63447;49.446;8.666;2023-12-28T03:25:01;6.70;;;3.20;;
74894;SDS011;63447;49.446;8.666;2023-12-28T03:27:27;7.07;;;3.13;;
74894;SDS011;63447;49.446;8.666;2023-12-28T03:29:52;7.13;;;2.70;;
74894;SDS011;63447;49.446;8.666;2023-12-28T03:32:17;5.90;;;2.90;;
74894;SDS011;63447;49.446;8.666;2023-12-28T03:34:43;5.73;;;2.83;;
74894;SDS011;63447;49.446;8.666;2023-12-28T03:37:08;6.70;;;3.00;;
74894;SDS011;63447;49.446;8.666;2023-12-28T03:39:36;5.90;;;3.22;;
74894;SDS011;63447;49.446;8.666;2023-12-28T03:42:04;6.85;;;3.08;;
74894;SDS011;63447;49.446;8.666;2023-12-28T03:44:30;5.78;;;2.33;;
74894;SDS011;63447;49.446;8.666;2023-12-28T03:46:57;6.57;;;2.80;;
74894;SDS011;63447;49.446;8.666;2023-12-28T03:49:25;6.75;;;2.92;;
74894;SDS011;63447;49.446;8.666;2023-12-28T03:51:53;6.50;;;2.97;;
74894;SDS011;63447;49.446;8.666;2023-12-28T03:54:18;6.70;;;2.80;;
74894;SDS011;63447;49.446;8.666;2023-12-28T03:56:45;5.30;;;2.67;;
74894;SDS011;63447;49.446;8.666;2023-12-28T03:59:11;6.47;;;2.65;;
74894;SDS011;63447;49.446;8.666;2023-12-28T04:01:36;5.32;;;2.53;;
74894;SDS011;63447;49.446;8.666;2023-12-28T04:04:07;6.10;;;2.50;;
74894;SDS011;63447;49.446;8.666;2023-12-28T04:06:33;5.78;;;2.30;;
74894;SDS011;63447;49.446;8.666;2023-12-28T04:08:58;5.87;;;2.20;;
74894;SDS011;63447;49.446;8.666;2023-12-28T04:11:24;6.82;;;2.72;;
74894;SDS011;63447;49.446;8.666;2023-12-28T04:13:51;6.75;;;2.70;;
74894;SDS011;63447;49.446;8.666;2023-12-28T04:16:17;5.35;;;2.90;;
74894;SDS011;63447;49.446;8.666;2023-12-28T04:18:44;6.75;;;2.65;;
74894;SDS011;63447;49.446;8.666;2023-12-28T04:21:13;5.57;;;2.42;;
74894;SDS011;63447;49.446;8.666;2023-12-28T04:23:39;5.78;;;2.42;;
74894;SDS011;63447;49.446;8.666;2023-12-28T04:26:07;5.45;;;2.33;;
74894;SDS011;63447;49.446;8.666;2023-12-28T04:28:33;6.05;;;2.40;;
74894;SDS011;63447;49.446;8.666;2023-12-28T04:31:04;5.28;;;2.63;;
74894;SDS011;63447;49.446;8.666;2023-12-28T04:33:30;5.78;;;2.45;;
74894;SDS011;63447;49.446;8.666;2023-12-28T04:36:02;5.13;;;2.40;;
74894;SDS011;63447;49.446;8.666;2023-12-28T04:38:29;6.00;;;2.70;;
74894;SDS011;63447;49.446;8.666;2023-12-28T04:40:55;5.53;;;2.78;;
74894;SDS011;63447;49.446;8.666;2023-12-28T04:43:26;5.55;;;2.65;;
74894;SDS011;63447;49.446;8.666;2023-12-28T04:45:53;6.00;;;2.42;;
74894;SDS011;63447;49.446;8.666;2023-12-28T04:48:19;6.53;;;2.60;;
74894;SDS011;63447;49.446;8.666;2023-12-28T04:50:48;7.75;;;2.55;;
74894;SDS011;63447;49.446;8.666;2023-12-28T04:53:17;5.70;;;2.20;;
74894;SDS011;63447;49.446;8.666;2023-12-28T04:55:43;9.65;;;2.78;;
74894;SDS011;63447;49.446;8.666;2023-12-28T04:58:08;6.03;;;2.60;;
74894;SDS011;63447;49.446;8.666;2023-12-28T05:00:37;7.03;;;2.65;;
74894;SDS011;63447;49.446;8.666;2023-12-28T05:03:05;4.45;;;2.17;;
74894;SDS011;63447;49.446;8.666;2023-12-28T05:05:33;5.10;;;1.98;;
74894;SDS011;63447;49.446;8.666;2023-12-28T05:08:01;4.07;;;1.75;;
74894;SDS011;63447;49.446;8.666;2023-12-28T05:10:26;4.55;;;2.08;;
74894;SDS011;63447;49.446;8.666;2023-12-28T05:12:56;5.15;;;1.95;;
74894;SDS011;63447;49.446;8.666;2023-12-28T05:15:22;3.90;;;1.70;;
74894;SDS011;63447;49.446;8.666;2023-12-28T05:17:47;4.30;;;1.63;;
74894;SDS011;63447;49.446;8.666;2023-12-28T05:20:15;5.63;;;1.90;;
74894;SDS011;63447;49.446;8.666;2023-12-28T05:22:43;4.97;;;1.80;;
74894;SDS011;63447;49.446;8.666;2023-12-28T05:25:11;5.07;;;1.75;;
74894;SDS011;63447;49.446;8.666;2023-12-28T05:27:38;4.97;;;1.92;;
74894;SDS011;63447;49.446;8.666;2023-12-28T05:30:07;3.85;;;1.85;;
74894;SDS011;63447;49.446;8.666;2023-12-28T05:32:35;4.63;;;1.88;;
74894;SDS011;63447;49.446;8.666;2023-12-28T05:35:03;6.20;;;2.13;;
74894;SDS011;63447;49.446;8.666;2023-12-28T05:37:29;4.50;;;2.17;;
74894;SDS011;63447;49.446;8.666;2023-12-28T05:39:54;4.40;;;1.80;;
74894;SDS011;63447;49.446;8.666;2023-12-28T05:42:22;5.47;;;1.85;;
74894;SDS011;63447;49.446;8.666;2023-12-28T05:44:47;5.88;;;2.05;;
74894;SDS011;63447;49.446;8.666;2023-12-28T05:47:16;7.93;;;2.40;;
74894;SDS011;63447;49.446;8.666;2023-12-28T05:49:41;6.53;;;1.90;;
74894;SDS011;63447;49.446;8.666;2023-12-28T05:52:07;8.18;;;2.20;;
74894;SDS011;63447;49.446;8.666;2023-12-28T05:54:32;5.70;;;1.90;;
74894;SDS011;63447;49.446;8.666;2023-12-28T05:56:57;5.68;;;2.22;;
74894;SDS011;63447;49.446;8.666;2023-12-28T05:59:25;4.85;;;2.10;;
74894;SDS011;63447;49.446;8.666;2023-12-28T06:01:51;6.55;;;2.00;;
74894;SDS011;63447;49.446;8.666;2023-12-28T06:04:17;4.63;;;1.92;;
74894;SDS011;63447;49.446;8.666;2023-12-28T06:06:45;5.20;;;2.07;;
74894;SDS011;63447;49.446;8.666;2023-12-28T06:09:15;5.78;;;2.30;;
74894;SDS011;63447;49.446;8.666;2023-12-28T06:11:40;8.45;;;2.47;;
74894;SDS011;63447;49.446;8.666;2023-12-28T06:14:05;7.13;;;2.33;;
74894;SDS011;63447;49.446;8.666;2023-12-28T06:16:31;5.13;;;2.28;;
74894;SDS011;63447;49.446;8.666;2023-12-28T06:19:00;7.32;;;2.63;;
74894;SDS011;63447;49.446;8.666;2023-12-28T06:21:30;4.20;;;1.88;;
74894;SDS011;63447;49.446;8.666;2023-12-28T06:23:59;5.15;;;2.10;;
74894;SDS011;63447;49.446;8.666;2023-12-28T06:26:24;5.05;;;2.00;;
74894;SDS011;63447;49.446;8.666;2023-12-28T06:28:49;5.30;;;2.10;;
74894;SDS011;63447;49.446;8.666;2023-12-28T06:31:15;4.53;;;1.83;;
74894;SDS011;63447;49.446;8.666;2023-12-28T06:33:40;5.83;;;2.07;;
74894;SDS011;63447;49.446;8.666;2023-12-28T06:36:09;5.00;;;2.20;;
74894;SDS011;63447;49.446;8.666;2023-12-28T06:38:37;6.07;;;2.28;;
74894;SDS011;63447;49.446;8.666;2023-12-28T06:41:02;7.03;;;1.83;;
74894;SDS011;63447;49.446;8.666;2023-12-28T06:43:35;5.72;;;2.00;;
74894;SDS011;63447;49.446;8.666;2023-12-28T06:46:03;5.15;;;1.92;;
74894;SDS011;63447;49.446;8.666;2023-12-28T06:48:28;6.35;;;2.08;;
74894;SDS011;63447;49.446;8.666;2023-12-28T06:50:56;4.63;;;1.83;;
74894;SDS011;63447;49.446;8.666;2023-12-28T06:53:21;5.20;;;2.05;;
74894;SDS011;63447;49.446;8.666;2023-12-28T06:55:46;5.83;;;2.13;;
74894;SDS011;63447;49.446;8.666;2023-12-28T06:58:14;5.40;;;2.10;;
74894;SDS011;63447;49.446;8.666;2023-12-28T07:00:39;5.75;;;2.10;;
74894;SDS011;63447;49.446;8.666;2023-12-28T07:03:06;5.40;;;2.13;;
74894;SDS011;63447;49.446;8.666;2023-12-28T07:05:32;4.68;;;1.65;;
74894;SDS011;63447;49.446;8.666;2023-12-28T07:08:02;4.85;;;2.10;;
74894;SDS011;63447;49.446;8.666;2023-12-28T07:10:28;5.22;;;1.95;;
74894;SDS011;63447;49.446;8.666;2023-12-28T07:12:53;5.97;;;2.00;;
74894;SDS011;63447;49.446;8.666;2023-12-28T07:15:18;9.50;;;3.77;;
74894;SDS011;63447;49.446;8.666;2023-12-28T07:17:46;6.00;;;2.10;;
74894;SDS011;63447;49.446;8.666;2023-12-28T07:20:13;5.32;;;2.00;;
74894;SDS011;63447;49.446;8.666;2023-12-28T07:22:39;5.50;;;2.15;;
74894;SDS011;63447;49.446;8.666;2023-12-28T07:25:07;5.50;;;2.22;;
74894;SDS011;63447;49.446;8.666;2023-12-28T07:27:36;4.93;;;2.40;;
74894;SDS011;63447;49.446;8.666;2023-12-28T07:30:04;5.00;;;1.80;;
74894;SDS011;63447;49.446;8.666;2023-12-28T07:32:33;4.90;;;2.08;;
74894;SDS011;63447;49.446;8.666;2023-12-28T07:35:03;5.82;;;2.65;;
74894;SDS011;63447;49.446;8.666;2023-12-28T07:37:31;5.47;;;2.00;;
74894;SDS011;63447;49.446;8.666;2023-12-28T07:39:59;5.15;;;2.20;;
74894;SDS011;63447;49.446;8.666;2023-12-28T07:42:24;6.53;;;2.40;;
74894;SDS011;63447;49.446;8.666;2023-12-28T07:44:52;6.88;;;2.30;;
74894;SDS011;63447;49.446;8.666;2023-12-28T07:47:18;6.22;;;2.40;;
74894;SDS011;63447;49.446;8.666;2023-12-28T07:49:43;5.27;;;2.10;;
74894;SDS011;63447;49.446;8.666;2023-12-28T07:52:11;6.03;;;1.90;;
74894;SDS011;63447;49.446;8.666;2023-12-28T07:54:40;6.55;;;2.30;;
74894;SDS011;63447;49.446;8.666;2023-12-28T07:57:10;5.30;;;2.53;;
74894;SDS011;63447;49.446;8.666;2023-12-28T07:59:36;6.32;;;2.33;;
74894;SDS011;63447;49.446;8.666;2023-12-28T08:02:06;5.25;;;2.60;;
74894;SDS011;63447;49.446;8.666;2023-12-28T08:04:33;5.38;;;2.28;;
74894;SDS011;63447;49.446;8.666;2023-12-28T08:06:59;6.87;;;2.17;;
74894;SDS011;63447;49.446;8.666;2023-12-28T08:09:27;5.05;;;2.20;;
74894;SDS011;63447;49.446;8.666;2023-12-28T08:11:54;6.18;;;2.40;;
74894;SDS011;63447;49.446;8.666;2023-12-28T08:14:22;7.25;;;2.13;;
74894;SDS011;63447;49.446;8.666;2023-12-28T08:16:47;7.43;;;2.40;;
74894;SDS011;63447;49.446;8.666;2023-12-28T08:19:13;5.15;;;2.10;;
74894;SDS011;63447;49.446;8.666;2023-12-28T08:21:41;7.18;;;2.53;;
74894;SDS011;63447;49.446;8.666;2023-12-28T08:24:09;6.95;;;2.20;;
74894;SDS011;63447;49.446;8.666;2023-12-28T08:26:38;5.25;;;2.13;;
74894;SDS011;63447;49.446;8.666;2023-12-28T08:29:06;7.57;;;2.40;;
74894;SDS011;63447;49.446;8.666;2023-12-28T08:31:32;5.65;;;2.03;;
74894;SDS011;63447;49.446;8.666;2023-12-28T08:34:00;4.70;;;2.00;;
74894;SDS011;63447;49.446;8.666;2023-12-28T08:36:25;7.57;;;2.58;;
74894;SDS011;63447;49.446;8.666;2023-12-28T08:38:53;5.80;;;2.40;;
74894;SDS011;63447;49.446;8.666;2023-12-28T08:41:21;6.07;;;2.10;;
74894;SDS011;63447;49.446;8.666;2023-12-28T08:43:49;5.40;;;1.98;;
74894;SDS011;63447;49.446;8.666;2023-12-28T08:46:17;5.47;;;2.42;;
74894;SDS011;63447;49.446;8.666;2023-12-28T08:48:53;7.40;;;2.40;;
74894;SDS011;63447;49.446;8.666;2023-12-28T08:51:26;4.70;;;1.80;;
74894;SDS011;63447;49.446;8.666;2023-12-28T08:53:51;6.55;;;2.05;;
74894;SDS011;63447;49.446;8.666;2023-12-28T08:56:20;4.85;;;1.77;;
74894;SDS011;63447;49.446;8.666;2023-12-28T08:58:46;6.60;;;2.13;;
74894;SDS011;63447;49.446;8.666;2023-12-28T09:01:19;6.00;;;2.03;;
74894;SDS011;63447;49.446;8.666;2023-12-28T09:03:48;4.75;;;1.83;;
74894;SDS011;63447;49.446;8.666;2023-12-28T09:06:24;6.38;;;2.65;;
74894;SDS011;63447;49.446;8.666;2023-12-28T09:08:52;4.68;;;1.73;;
74894;SDS011;63447;49.446;8.666;2023-12-28T09:11:20;5.50;;;2.40;;
74894;SDS011;63447;49.446;8.666;2023-12-28T09:13:48;6.10;;;2.17;;
74894;SDS011;63447;49.446;8.666;2023-12-28T09:16:14;4.75;;;2.08;;
74894;SDS011;63447;49.446;8.666;2023-12-28T09:18:40;5.60;;;2.15;;
74894;SDS011;63447;49.446;8.666;2023-12-28T09:21:06;5.75;;;2.30;;
74894;SDS011;63447;49.446;8.666;2023-12-28T09:23:32;5.40;;;2.05;;
74894;SDS011;63447;49.446;8.666;2023-12-28T09:26:04;5.28;;;2.08;;
74894;SDS011;63447;49.446;8.666;2023-12-28T09:28:31;5.35;;;2.38;;
74894;SDS011;63447;49.446;8.666;2023-12-28T09:31:00;5.75;;;2.00;;
74894;SDS011;63447;49.446;8.666;2023-12-28T09:33:27;6.43;;;2.25;;
74894;SDS011;63447;49.446;8.666;2023-12-28T09:35:52;5.90;;;2.50;;
74894;SDS011;63447;49.446;8.666;2023-12-28T09:38:20;6.40;;;2.47;;
74894;SDS011;63447;49.446;8.666;2023-12-28T09:40:52;6.15;;;2.47;;
74894;SDS011;63447;49.446;8.666;2023-12-28T09:45:49;8.52;;;2.20;;
74894;SDS011;63447;49.446;8.666;2023-12-28T09:48:20;6.05;;;2.50;;
74894;SDS011;63447;49.446;8.666;2023-12-28T09:50:50;6.38;;;2.53;;
74894;SDS011;63447;49.446;8.666;2023-12-28T09:53:23;5.50;;;2.63;;
74894;SDS011;63447;49.446;8.666;2023-12-28T09:55:49;6.85;;;2.72;;
74894;SDS011;63447;49.446;8.666;2023-12-28T09:58:18;5.47;;;2.53;;
74894;SDS011;63447;49.446;8.666;2023-12-28T10:00:47;5.00;;;2.63;;
74894;SDS011;63447;49.446;8.666;2023-12-28T10:03:23;8.30;;;2.80;;
74894;SDS011;63447;49.446;8.666;2023-12-28T10:05:48;6.15;;;2.97;;
74894;SDS011;63447;49.446;8.666;2023-12-28T10:08:16;6.10;;;2.63;;
74894;SDS011;63447;49.446;8.666;2023-12-28T10:10:42;6.75;;;2.72;;
74894;SDS011;63447;49.446;8.666;2023-12-28T10:13:08;6.25;;;2.70;;
74894;SDS011;63447;49.446;8.666;2023-12-28T10:15:40;6.97;;;2.60;;
74894;SDS011;63447;49.446;8.666;2023-12-28T10:18:08;5.53;;;2.92;;
74894;SDS011;63447;49.446;8.666;2023-12-28T10:20:36;5.85;;;2.90;;
74894;SDS011;63447;49.446;8.666;2023-12-28T10:23:01;7.78;;;3.15;;
74894;SDS011;63447;49.446;8.666;2023-12-28T10:25:27;6.70;;;3.03;;
74894;SDS011;63447;49.446;8.666;2023-12-28T10:27:56;7.00;;;2.80;;
74894;SDS011;63447;49.446;8.666;2023-12-28T10:30:21;6.70;;;3.17;;
74894;SDS011;63447;49.446;8.666;2023-12-28T10:32:51;8.25;;;3.58;;
74894;SDS011;63447;49.446;8.666;2023-12-28T10:35:17;8.43;;;3.60;;
74894;SDS011;63447;49.446;8.666;2023-12-28T10:37:42;6.90;;;3.20;;
74894;SDS011;63447;49.446;8.666;2023-12-28T10:40:11;8.60;;;2.80;;
74894;SDS011;63447;49.446;8.666;2023-12-28T10:45:18;6.97;;;2.95;;
74894;SDS011;63447;49.446;8.666;2023-12-28T10:48:10;5.63;;;2.63;;
74894;SDS011;63447;49.446;8.666;2023-12-28T10:50:40;7.05;;;2.85;;
74894;SDS011;63447;49.446;8.666;2023-12-28T10:58:44;5.47;;;2.72;;
74894;SDS011;63447;49.446;8.666;2023-12-28T11:01:37;7.15;;;2.33;;
74894;SDS011;63447;49.446;8.666;2023-12-28T11:04:23;5.90;;;2.33;;
74894;SDS011;63447;49.446;8.666;2023-12-28T11:06:56;7.00;;;2.40;;
74894;SDS011;63447;49.446;8.666;2023-12-28T11:09:23;7.05;;;2.20;;
74894;SDS011;63447;49.446;8.666;2023-12-28T11:11:49;3.88;;;1.73;;
74894;SDS011;63447;49.446;8.666;2023-12-28T11:14:18;5.30;;;2.35;;
74894;SDS011;63447;49.446;8.666;2023-12-28T11:16:47;6.28;;;2.35;;
74894;SDS011;63447;49.446;8.666;2023-12-28T11:19:14;5.15;;;2.17;;
74894;SDS011;63447;49.446;8.666;2023-12-28T11:21:41;6.63;;;2.28;;
74894;SDS011;63447;49.446;8.666;2023-12-28T11:24:12;5.22;;;2.22;;
74894;SDS011;63447;49.446;8.666;2023-12-28T11:26:45;5.60;;;2.55;;
74894;SDS011;63447;49.446;8.666;2023-12-28T11:29:19;5.28;;;2.42;;
74894;SDS011;63447;49.446;8.666;2023-12-28T11:31:50;5.28;;;2.65;;
74894;SDS011;63447;49.446;8.666;2023-12-28T11:34:24;6.90;;;2.30;;
74894;SDS011;63447;49.446;8.666;2023-12-28T11:36:51;5.75;;;2.67;;
74894;SDS011;63447;49.446;8.666;2023-12-28T11:39:20;5.22;;;2.55;;
74894;SDS011;63447;49.446;8.666;2023-12-28T11:42:04;6.15;;;2.53;;
74894;SDS011;63447;49.446;8.666;2023-12-28T11:44:43;6.20;;;2.45;;
74894;SDS011;63447;49.446;8.666;2023-12-28T11:47:15;6.32;;;2.83;;
74894;SDS011;63447;49.446;8.666;2023-12-28T11:49:50;6.15;;;2.63;;
74894;SDS011;63447;49.446;8.666;2023-12-28T11:52:23;6.50;;;2.92;;
74894;SDS011;63447;49.446;8.666;2023-12-28T11:54:56;6.10;;;2.55;;
74894;SDS011;63447;49.446;8.666;2023-12-28T11:57:24;5.80;;;2.20;;
74894;SDS011;63447;49.446;8.666;2023-12-28T11:59:55;5.63;;;2.92;;
74894;SDS011;63447;49.446;8.666;2023-12-28T12:02:22;7.55;;;3.00;;
74894;SDS011;63447;49.446;8.666;2023-12-28T12:04:49;7.43;;;3.03;;
74894;SDS011;63447;49.446;8.666;2023-12-28T12:07:14;8.65;;;4.40;;
74894;SDS011;63447;49.446;8.666;2023-12-28T12:09:39;6.75;;;3.42;;
74894;SDS011;63447;49.446;8.666;2023-12-28T12:12:06;6.80;;;3.05;;
74894;SDS011;63447;49.446;8.666;2023-12-28T12:14:32;5.95;;;2.90;;
74894;SDS011;63447;49.446;8.666;2023-12-28T12:16:59;6.50;;;2.97;;
74894;SDS011;63447;49.446;8.666;2023-12-28T12:19:27;5.72;;;3.05;;
74894;SDS011;63447;49.446;8.666;2023-12-28T12:21:54;6.70;;;3.15;;
74894;SDS011;63447;49.446;8.666;2023-12-28T12:24:21;7.35;;;3.50;;
74894;SDS011;63447;49.446;8.666;2023-12-28T12:26:46;7.45;;;3.42;;
74894;SDS011;63447;49.446;8.666;2023-12-28T12:29:13;6.82;;;3.33;;
74894;SDS011;63447;49.446;8.666;2023-12-28T12:31:41;7.22;;;3.50;;
74894;SDS011;63447;49.446;8.666;2023-12-28T12:34:09;6.70;;;3.72;;
74894;SDS011;63447;49.446;8.666;2023-12-28T12:36:37;6.90;;;3.30;;
74894;SDS011;63447;49.446;8.666;2023-12-28T12:39:03;7.65;;;3.40;;
74894;SDS011;63447;49.446;8.666;2023-12-28T12:41:32;6.55;;;3.28;;
74894;SDS011;63447;49.446;8.666;2023-12-28T12:43:58;7.10;;;3.83;;
74894;SDS011;63447;49.446;8.666;2023-12-28T12:46:27;6.63;;;3.47;;
74894;SDS011;63447;49.446;8.666;2023-12-28T12:48:56;12.23;;;4.13;;
74894;SDS011;63447;49.446;8.666;2023-12-28T12:51:22;6.80;;;3.78;;
74894;SDS011;63447;49.446;8.666;2023-12-28T12:53:59;6.47;;;3.47;;
74894;SDS011;63447;49.446;8.666;2023-12-28T12:56:28;9.27;;;4.55;;
74894;SDS011;63447;49.446;8.666;2023-12-28T12:58:55;8.38;;;4.13;;
74894;SDS011;63447;49.446;8.666;2023-12-28T13:01:21;8.85;;;4.05;;
74894;SDS011;63447;49.446;8.666;2023-12-28T13:03:48;10.73;;;3.83;;
74894;SDS011;63447;49.446;8.666;2023-12-28T13:06:15;7.63;;;3.78;;
74894;SDS011;63447;49.446;8.666;2023-12-28T13:08:41;6.47;;;3.33;;
74894;SDS011;63447;49.446;8.666;2023-12-28T13:11:09;6.75;;;3.40;;
74894;SDS011;63447;49.446;8.666;2023-12-28T13:13:35;7.97;;;3.72;;
74894;SDS011;63447;49.446;8.666;2023-12-28T13:16:01;6.82;;;3.47;;
74894;SDS011;63447;49.446;8.666;2023-12-28T13:18:27;7.82;;;3.78;;
74894;SDS011;63447;49.446;8.666;2023-12-28T13:20:52;8.17;;;4.10;;
74894;SDS011;63447;49.446;8.666;2023-12-28T13:23:17;9.02;;;4.65;;
74894;SDS011;63447;49.446;8.666;2023-12-28T13:25:43;8.07;;;4.40;;
74894;SDS011;63447;49.446;8.666;2023-12-28T13:28:09;7.97;;;4.10;;
74894;SDS011;63447;49.446;8.666;2023-12-28T13:30:35;8.82;;;4.50;;
74894;SDS011;63447;49.446;8.666;2023-12-28T13:33:02;8.15;;;4.05;;
74894;SDS011;63447;49.446;8.666;2023-12-28T13:35:28;8.00;;;4.45;;
74894;SDS011;63447;49.446;8.666;2023-12-28T13:37:53;9.07;;;4.40;;
74894;SDS011;63447;49.446;8.666;2023-12-28T13:40:20;8.70;;;4.47;;
74894;SDS011;63447;49.446;8.666;2023-12-28T13:42:48;13.82;;;5.20;;
74894;SDS011;63447;49.446;8.666;2023-12-28T13:45:15;7.57;;;4.45;;
74894;SDS011;63447;49.446;8.666;2023-12-28T13:47:44;9.38;;;4.95;;
74894;SDS011;63447;49.446;8.666;2023-12-28T13:50:09;9.27;;;4.93;;
74894;SDS011;63447;49.446;8.666;2023-12-28T13:52:35;8.43;;;4.30;;
74894;SDS011;63447;49.446;8.666;2023-12-28T13:55:00;9.70;;;4.97;;
74894;SDS011;63447;49.446;8.666;2023-12-28T13:57:25;8.33;;;4.33;;
74894;SDS011;63447;49.446;8.666;2023-12-28T13:59:51;9.47;;;4.67;;
74894;SDS011;63447;49.446;8.666;2023-12-28T14:02:16;9.40;;;4.50;;
74894;SDS011;63447;49.446;8.666;2023-12-28T14:04:42;7.88;;;4.07;;
74894;SDS011;63447;49.446;8.666;2023-12-28T14:07:07;9.32;;;4.40;;
74894;SDS011;63447;49.446;8.666;2023-12-28T14:09:32;9.10;;;4.17;;
74894;SDS011;63447;49.446;8.666;2023-12-28T14:11:58;8.30;;;4.60;;
74894;SDS011;63447;49.446;8.666;2023-12-28T14:14:24;9.13;;;4.70;;
74894;SDS011;63447;49.446;8.666;2023-12-28T14:16:52;8.48;;;4.72;;
74894;SDS011;63447;49.446;8.666;2023-12-28T14:19:19;10.32;;;4.82;;
74894;SDS011;63447;49.446;8.666;2023-12-28T14:21:45;10.02;;;5.25;;
74894;SDS011;63447;49.446;8.666;2023-12-28T14:24:10;10.48;;;5.22;;
74894;SDS011;63447;49.446;8.666;2023-12-28T14:26:40;9.18;;;5.35;;
74894;SDS011;63447;49.446;8.666;2023-12-28T14:29:09;12.45;;;6.28;;
74894;SDS011;63447;49.446;8.666;2023-12-28T14:31:35;10.75;;;6.00;;
74894;SDS011;63447;49.446;8.666;2023-12-28T14:34:02;11.27;;;5.80;;
74894;SDS011;63447;49.446;8.666;2023-12-28T14:36:34;10.63;;;6.13;;
74894;SDS011;63447;49.446;8.666;2023-12-28T14:39:03;9.48;;;5.55;;
74894;SDS011;63447;49.446;8.666;2023-12-28T14:41:30;8.98;;;5.10;;
74894;SDS011;63447;49.446;8.666;2023-12-28T14:43:58;8.48;;;4.88;;
74894;SDS011;63447;49.446;8.666;2023-12-28T14:46:27;10.68;;;5.00;;
74894;SDS011;63447;49.446;8.666;2023-12-28T14:48:52;10.50;;;5.05;;
74894;SDS011;63447;49.446;8.666;2023-12-28T14:51:20;9.60;;;5.18;;
74894;SDS011;63447;49.446;8.666;2023-12-28T14:53:46;8.65;;;5.07;;
74894;SDS011;63447;49.446;8.666;2023-12-28T14:56:12;9.20;;;4.90;;
74894;SDS011;63447;49.446;8.666;2023-12-28T14:58:37;12.60;;;5.20;;
74894;SDS011;63447;49.446;8.666;2023-12-28T15:01:03;9.93;;;5.18;;